Greenville, SC (29610)

2:00 AM EST on March 05, 2015 (GMT -0500)
APRSWXNET Travelers Rest SC US | Change Station
CLOSE
Current Station
Personal Weather Station
Location: Greenville, SC
Elevation: 1174 ft
Nearby Weather Stations

Elev 1174 ft 34.95 °N, 82.42 °W | Updated 27 minutes ago

Overcast
Overcast
62 °F
Feels Like 62 °F
N
3
Wind Variable Wind from SSW
Gusts 11.0 mph

Today
High -- | Low -- °F
--% Chance of Precip.
Yesterday
High -- | Low -- °F
Precip. -- in
6:54 AM 6:28 PM
Full, 100% visible
Pressure 29.86 in
Visibility 9.0 miles
Clouds Mostly Cloudy 1200 ft
Overcast 2100 ft
Dew Point 61 °F
Humidity 95%
Rainfall in
Snow Depth Not available.
UV 0 out of 12
Pollen 7.90 out of 12
Air Quality Not available.
Flu Activity Not available.
METAR KGMU 050653Z AUTO 21012KT 9SM -RA BKN012 OVC021 18/16 A2988 RMK AO2 RAE0558B39 SLP112 P0000 T01780156

More Conditions Fewer Conditions

Pressure 29.86 in
Visibility 9.0 miles
Clouds Mostly Cloudy 1200 ft
Overcast 2100 ft
Dew Point 61 °F
Humidity 95%
Rainfall in
Snow Depth Not available.
UV 0 out of 12
Pollen 7.90 out of 12
Air Quality Not available.
Flu Activity Not available.
METAR KGMU 050653Z AUTO 21012KT 9SM -RA BKN012 OVC021 18/16 A2988 RMK AO2 RAE0558B39 SLP112 P0000 T01780156

More Conditions Fewer Conditions

10-Day Weather Forecast

Almanac

Astronomy

Mar. 05, 2015 Rise Set
Actual Time
Civil Twilight
Nautical Twilight
Astronomical Twilight
Moon
Length of Visible Light
Length of Day
Tomorrow will be .
, % of the Moon is Illuminated

Today's Extremes

State Highs State Lows

Community

WunderPhotos

Upload Photos

1,802,689 photos uploaded!

WunderBlogs® & News

Nearby

Air Quality

  Air Quality AQ Index Pollutant
Not available.

Snow Depth

Station Depth Elevation

Earthquake Activity

City Distance Mag. Time & Date
Minimum magnitude displayed is 2.5.

Coastal Water Temperatures

Place Temperature

Nearby Weather Stations